sensor_id;sensor_type;location;lat;lon;timestamp;pressure;altitude;pressure_sealevel;temperature;humidity
33265;BME280;31404;53.974;-1.086;2023-04-05T00:00:39;102119.23;;;10.55;60.00
33265;BME280;31404;53.974;-1.086;2023-04-05T00:05:37;102114.60;;;10.42;60.85
33265;BME280;31404;53.974;-1.086;2023-04-05T00:10:38;102106.56;;;10.84;59.57
33265;BME280;31404;53.974;-1.086;2023-04-05T00:15:39;102096.67;;;10.75;60.10
33265;BME280;31404;53.974;-1.086;2023-04-05T00:20:38;102087.19;;;10.70;59.87
33265;BME280;31404;53.974;-1.086;2023-04-05T00:25:40;102088.21;;;11.02;59.71
33265;BME280;31404;53.974;-1.086;2023-04-05T00:30:38;102083.47;;;10.40;60.69
33265;BME280;31404;53.974;-1.086;2023-04-05T00:35:39;102080.23;;;9.48;63.61
33265;BME280;31404;53.974;-1.086;2023-04-05T00:40:38;102080.68;;;8.21;67.58
33265;BME280;31404;53.974;-1.086;2023-04-05T00:45:38;102070.70;;;7.67;70.66
33265;BME280;31404;53.974;-1.086;2023-04-05T00:50:39;102062.20;;;8.92;67.58
33265;BME280;31404;53.974;-1.086;2023-04-05T00:55:37;102060.01;;;8.52;68.42
33265;BME280;31404;53.974;-1.086;2023-04-05T01:00:39;102067.08;;;8.22;69.74
33265;BME280;31404;53.974;-1.086;2023-04-05T01:05:40;102058.71;;;7.53;71.14
33265;BME280;31404;53.974;-1.086;2023-04-05T01:15:40;102052.34;;;8.89;67.65
33265;BME280;31404;53.974;-1.086;2023-04-05T01:20:44;102058.37;;;8.23;70.22
33265;BME280;31404;53.974;-1.086;2023-04-05T01:30:41;102040.17;;;8.97;67.10
33265;BME280;31404;53.974;-1.086;2023-04-05T01:40:40;102031.50;;;9.64;65.34
33265;BME280;31404;53.974;-1.086;2023-04-05T01:45:41;102026.72;;;9.82;64.72
33265;BME280;31404;53.974;-1.086;2023-04-05T01:50:40;102016.64;;;9.44;65.38
33265;BME280;31404;53.974;-1.086;2023-04-05T01:55:37;102008.17;;;9.27;65.86
33265;BME280;31404;53.974;-1.086;2023-04-05T02:00:40;102000.72;;;8.74;67.10
33265;BME280;31404;53.974;-1.086;2023-04-05T02:05:41;101992.67;;;8.87;66.93
33265;BME280;31404;53.974;-1.086;2023-04-05T02:10:37;101990.31;;;9.97;63.93
33265;BME280;31404;53.974;-1.086;2023-04-05T02:15:37;101993.25;;;7.37;70.30
33265;BME280;31404;53.974;-1.086;2023-04-05T02:20:38;101977.58;;;9.14;66.65
33265;BME280;31404;53.974;-1.086;2023-04-05T02:25:39;101978.46;;;8.41;68.00
33265;BME280;31404;53.974;-1.086;2023-04-05T02:30:35;101975.04;;;8.47;67.20
33265;BME280;31404;53.974;-1.086;2023-04-05T02:35:39;101977.09;;;8.47;68.51
33265;BME280;31404;53.974;-1.086;2023-04-05T02:40:38;101971.55;;;10.09;63.61
33265;BME280;31404;53.974;-1.086;2023-04-05T02:45:39;101964.07;;;9.21;65.15
33265;BME280;31404;53.974;-1.086;2023-04-05T02:50:38;101964.37;;;8.89;65.86
33265;BME280;31404;53.974;-1.086;2023-04-05T02:55:38;101961.60;;;8.11;69.03
33265;BME280;31404;53.974;-1.086;2023-04-05T03:00:38;101951.41;;;8.82;66.36
33265;BME280;31404;53.974;-1.086;2023-04-05T03:05:40;101947.33;;;8.94;66.27
33265;BME280;31404;53.974;-1.086;2023-04-05T03:10:39;101947.26;;;8.19;68.74
33265;BME280;31404;53.974;-1.086;2023-04-05T03:15:40;101937.58;;;8.69;67.80
33265;BME280;31404;53.974;-1.086;2023-04-05T03:20:39;101932.51;;;8.97;66.09
33265;BME280;31404;53.974;-1.086;2023-04-05T03:25:37;101930.62;;;9.41;64.52
33265;BME280;31404;53.974;-1.086;2023-04-05T03:30:39;101928.81;;;8.74;67.57
33265;BME280;31404;53.974;-1.086;2023-04-05T03:35:38;101928.60;;;8.23;67.91
33265;BME280;31404;53.974;-1.086;2023-04-05T03:40:39;101930.41;;;8.33;68.71
33265;BME280;31404;53.974;-1.086;2023-04-05T03:45:39;101933.30;;;9.84;64.89
33265;BME280;31404;53.974;-1.086;2023-04-05T03:50:39;101933.18;;;9.10;65.44
33265;BME280;31404;53.974;-1.086;2023-04-05T03:55:39;101945.10;;;7.69;71.10
33265;BME280;31404;53.974;-1.086;2023-04-05T04:00:39;101935.73;;;7.75;69.80
33265;BME280;31404;53.974;-1.086;2023-04-05T04:05:35;101931.49;;;7.69;71.43
33265;BME280;31404;53.974;-1.086;2023-04-05T04:15:39;101925.15;;;6.84;73.68
33265;BME280;31404;53.974;-1.086;2023-04-05T04:20:35;101920.42;;;7.77;72.60
33265;BME280;31404;53.974;-1.086;2023-04-05T04:25:39;101916.39;;;7.95;70.06
33265;BME280;31404;53.974;-1.086;2023-04-05T04:30:39;101914.48;;;7.96;70.91
33265;BME280;31404;53.974;-1.086;2023-04-05T04:35:35;101910.09;;;8.98;67.17
33265;BME280;31404;53.974;-1.086;2023-04-05T04:40:39;101909.30;;;8.91;67.29
33265;BME280;31404;53.974;-1.086;2023-04-05T04:45:39;101903.74;;;8.55;68.44
33265;BME280;31404;53.974;-1.086;2023-04-05T04:50:39;101898.81;;;6.80;74.78
33265;BME280;31404;53.974;-1.086;2023-04-05T04:55:34;101892.53;;;7.35;73.29
33265;BME280;31404;53.974;-1.086;2023-04-05T05:00:38;101887.40;;;7.64;73.05
33265;BME280;31404;53.974;-1.086;2023-04-05T05:10:38;101877.97;;;8.14;70.86
33265;BME280;31404;53.974;-1.086;2023-04-05T05:20:37;101881.70;;;7.94;69.84
33265;BME280;31404;53.974;-1.086;2023-04-05T05:25:39;101879.21;;;8.01;71.07
33265;BME280;31404;53.974;-1.086;2023-04-05T05:30:40;101884.33;;;6.79;74.77
33265;BME280;31404;53.974;-1.086;2023-04-05T05:35:40;101876.03;;;8.77;68.44
33265;BME280;31404;53.974;-1.086;2023-04-05T05:40:35;101883.72;;;7.17;73.59
33265;BME280;31404;53.974;-1.086;2023-04-05T05:45:38;101875.47;;;8.14;70.48
33265;BME280;31404;53.974;-1.086;2023-04-05T05:50:39;101885.98;;;6.52;75.65
33265;BME280;31404;53.974;-1.086;2023-04-05T05:55:37;101890.98;;;7.48;72.80
33265;BME280;31404;53.974;-1.086;2023-04-05T06:00:39;101895.57;;;7.21;74.88
33265;BME280;31404;53.974;-1.086;2023-04-05T06:05:38;101891.28;;;7.28;73.64
33265;BME280;31404;53.974;-1.086;2023-04-05T06:10:39;101884.60;;;7.74;73.05
33265;BME280;31404;53.974;-1.086;2023-04-05T06:15:39;101880.28;;;8.31;71.05
33265;BME280;31404;53.974;-1.086;2023-04-05T06:20:38;101875.29;;;8.34;70.37
33265;BME280;31404;53.974;-1.086;2023-04-05T06:25:37;101871.05;;;9.38;66.72
33265;BME280;31404;53.974;-1.086;2023-04-05T06:30:39;101869.95;;;9.52;66.80
33265;BME280;31404;53.974;-1.086;2023-04-05T06:35:36;101870.68;;;9.32;66.49
33265;BME280;31404;53.974;-1.086;2023-04-05T06:40:34;101867.44;;;9.19;66.91
33265;BME280;31404;53.974;-1.086;2023-04-05T06:45:36;101865.97;;;9.45;66.14
33265;BME280;31404;53.974;-1.086;2023-04-05T06:50:34;101869.42;;;9.23;66.96
33265;BME280;31404;53.974;-1.086;2023-04-05T06:55:39;101871.53;;;7.87;74.35
33265;BME280;31404;53.974;-1.086;2023-04-05T07:00:39;101876.12;;;7.55;76.38
33265;BME280;31404;53.974;-1.086;2023-04-05T07:05:38;101873.92;;;5.99;82.89
33265;BME280;31404;53.974;-1.086;2023-04-05T07:10:38;101874.84;;;7.84;74.15
33265;BME280;31404;53.974;-1.086;2023-04-05T07:15:37;101877.97;;;6.12;81.09
33265;BME280;31404;53.974;-1.086;2023-04-05T07:20:38;101875.81;;;6.21;82.36
33265;BME280;31404;53.974;-1.086;2023-04-05T07:25:39;101877.81;;;7.11;77.45
33265;BME280;31404;53.974;-1.086;2023-04-05T07:30:35;101866.17;;;8.03;73.63
33265;BME280;31404;53.974;-1.086;2023-04-05T07:35:35;101867.23;;;8.53;71.89
33265;BME280;31404;53.974;-1.086;2023-04-05T07:40:34;101866.61;;;9.12;70.95
33265;BME280;31404;53.974;-1.086;2023-04-05T07:45:39;101871.13;;;6.97;77.12
33265;BME280;31404;53.974;-1.086;2023-04-05T07:50:39;101868.98;;;7.07;77.74
33265;BME280;31404;53.974;-1.086;2023-04-05T07:55:38;101866.53;;;7.06;78.93
33265;BME280;31404;53.974;-1.086;2023-04-05T08:00:39;101859.90;;;5.89;84.23
33265;BME280;31404;53.974;-1.086;2023-04-05T08:05:38;101861.74;;;6.72;83.38
33265;BME280;31404;53.974;-1.086;2023-04-05T08:10:38;101864.51;;;7.19;81.31
33265;BME280;31404;53.974;-1.086;2023-04-05T08:15:39;101861.82;;;5.75;87.90
33265;BME280;31404;53.974;-1.086;2023-04-05T08:20:38;101863.44;;;6.90;85.28
33265;BME280;31404;53.974;-1.086;2023-04-05T08:25:38;101860.64;;;6.37;89.62
33265;BME280;31404;53.974;-1.086;2023-04-05T08:30:34;101860.78;;;6.57;90.61
33265;BME280;31404;53.974;-1.086;2023-04-05T08:35:35;101862.96;;;7.63;87.85
33265;BME280;31404;53.974;-1.086;2023-04-05T08:40:40;101854.05;;;7.72;86.32
33265;BME280;31404;53.974;-1.086;2023-04-05T08:45:35;101852.10;;;7.35;91.99
33265;BME280;31404;53.974;-1.086;2023-04-05T08:50:35;101849.94;;;6.52;93.44
33265;BME280;31404;53.974;-1.086;2023-04-05T08:55:35;101840.17;;;7.81;90.72
33265;BME280;31404;53.974;-1.086;2023-04-05T09:00:40;101840.13;;;7.40;95.17
33265;BME280;31404;53.974;-1.086;2023-04-05T09:05:38;101831.63;;;8.51;88.14
33265;BME280;31404;53.974;-1.086;2023-04-05T09:10:39;101831.63;;;7.18;95.18
33265;BME280;31404;53.974;-1.086;2023-04-05T09:15:35;101828.59;;;8.51;89.62
33265;BME280;31404;53.974;-1.086;2023-04-05T09:20:39;101833.02;;;6.99;99.18
33265;BME280;31404;53.974;-1.086;2023-04-05T09:25:38;101827.79;;;8.23;92.40
33265;BME280;31404;53.974;-1.086;2023-04-05T09:35:38;101818.12;;;7.85;95.40
33265;BME280;31404;53.974;-1.086;2023-04-05T09:40:41;101820.60;;;8.55;93.29
33265;BME280;31404;53.974;-1.086;2023-04-05T09:45:39;101815.35;;;9.26;88.58
33265;BME280;31404;53.974;-1.086;2023-04-05T09:50:40;101814.41;;;9.05;88.96
33265;BME280;31404;53.974;-1.086;2023-04-05T09:55:41;101812.64;;;8.88;91.21
33265;BME280;31404;53.974;-1.086;2023-04-05T10:05:39;101809.08;;;8.63;91.30
33265;BME280;31404;53.974;-1.086;2023-04-05T10:15:38;101808.26;;;10.52;86.09
33265;BME280;31404;53.974;-1.086;2023-04-05T10:20:39;101803.36;;;9.28;88.88
33265;BME280;31404;53.974;-1.086;2023-04-05T10:30:46;101802.32;;;10.03;88.52
33265;BME280;31404;53.974;-1.086;2023-04-05T10:40:35;101793.73;;;10.13;88.02
33265;BME280;31404;53.974;-1.086;2023-04-05T10:45:40;101788.85;;;9.34;88.00
33265;BME280;31404;53.974;-1.086;2023-04-05T10:50:38;101789.51;;;8.22;94.40
33265;BME280;31404;53.974;-1.086;2023-04-05T10:55:39;101785.11;;;9.33;92.06
33265;BME280;31404;53.974;-1.086;2023-04-05T11:00:40;101783.99;;;9.98;88.64
33265;BME280;31404;53.974;-1.086;2023-04-05T11:05:39;101779.51;;;9.88;91.66
33265;BME280;31404;53.974;-1.086;2023-04-05T11:10:38;101778.18;;;9.86;90.91
33265;BME280;31404;53.974;-1.086;2023-04-05T11:15:35;101778.78;;;10.00;87.95
33265;BME280;31404;53.974;-1.086;2023-04-05T11:25:39;101775.22;;;8.71;97.78
33265;BME280;31404;53.974;-1.086;2023-04-05T11:35:38;101765.59;;;9.01;98.61
33265;BME280;31404;53.974;-1.086;2023-04-05T11:40:39;101760.82;;;8.23;100.00
33265;BME280;31404;53.974;-1.086;2023-04-05T11:45:39;101753.14;;;9.29;96.21
33265;BME280;31404;53.974;-1.086;2023-04-05T11:50:36;101748.63;;;9.54;94.93
33265;BME280;31404;53.974;-1.086;2023-04-05T11:55:42;101740.41;;;9.33;95.61
33265;BME280;31404;53.974;-1.086;2023-04-05T12:00:39;101739.64;;;9.77;94.41
33265;BME280;31404;53.974;-1.086;2023-04-05T12:10:39;101734.66;;;9.89;95.68
33265;BME280;31404;53.974;-1.086;2023-04-05T12:15:37;101726.85;;;10.04;94.12
33265;BME280;31404;53.974;-1.086;2023-04-05T12:20:35;101725.39;;;8.66;100.00
33265;BME280;31404;53.974;-1.086;2023-04-05T12:25:37;101719.14;;;9.47;99.09
33265;BME280;31404;53.974;-1.086;2023-04-05T12:35:35;101708.52;;;9.99;94.54
33265;BME280;31404;53.974;-1.086;2023-04-05T12:45:39;101701.81;;;10.62;95.26
33265;BME280;31404;53.974;-1.086;2023-04-05T13:00:35;101689.77;;;10.04;97.37
33265;BME280;31404;53.974;-1.086;2023-04-05T13:05:35;101683.76;;;9.09;100.00
33265;BME280;31404;53.974;-1.086;2023-04-05T13:10:35;101683.20;;;10.14;100.00
33265;BME280;31404;53.974;-1.086;2023-04-05T13:15:35;101677.09;;;10.69;96.13
33265;BME280;31404;53.974;-1.086;2023-04-05T13:20:34;101673.11;;;9.33;100.00
33265;BME280;31404;53.974;-1.086;2023-04-05T13:25:40;101676.15;;;9.91;100.00
33265;BME280;31404;53.974;-1.086;2023-04-05T13:30:35;101667.88;;;10.68;96.49
33265;BME280;31404;53.974;-1.086;2023-04-05T13:35:41;101665.43;;;9.72;100.00
33265;BME280;31404;53.974;-1.086;2023-04-05T13:40:35;101657.73;;;9.23;100.00
33265;BME280;31404;53.974;-1.086;2023-04-05T13:45:39;101657.07;;;10.27;99.09
33265;BME280;31404;53.974;-1.086;2023-04-05T13:50:35;101660.57;;;9.78;100.00
33265;BME280;31404;53.974;-1.086;2023-04-05T13:55:38;101654.90;;;9.12;100.00
33265;BME280;31404;53.974;-1.086;2023-04-05T14:00:35;101646.91;;;9.25;100.00
33265;BME280;31404;53.974;-1.086;2023-04-05T14:05:39;101642.77;;;9.01;100.00
33265;BME280;31404;53.974;-1.086;2023-04-05T14:10:35;101632.37;;;8.59;100.00
33265;BME280;31404;53.974;-1.086;2023-04-05T14:15:37;101627.93;;;8.77;100.00
33265;BME280;31404;53.974;-1.086;2023-04-05T14:20:40;101623.48;;;8.74;100.00
33265;BME280;31404;53.974;-1.086;2023-04-05T14:25:35;101611.67;;;8.26;100.00
33265;BME280;31404;53.974;-1.086;2023-04-05T14:30:40;101601.63;;;10.61;100.00
33265;BME280;31404;53.974;-1.086;2023-04-05T14:35:39;101593.95;;;9.90;100.00
33265;BME280;31404;53.974;-1.086;2023-04-05T14:40:35;101588.58;;;10.00;100.00
33265;BME280;31404;53.974;-1.086;2023-04-05T14:45:35;101575.62;;;10.39;100.00
33265;BME280;31404;53.974;-1.086;2023-04-05T14:50:40;101571.45;;;10.51;100.00
33265;BME280;31404;53.974;-1.086;2023-04-05T14:55:35;101567.96;;;9.36;100.00
33265;BME280;31404;53.974;-1.086;2023-04-05T15:00:38;101560.71;;;9.02;100.00
33265;BME280;31404;53.974;-1.086;2023-04-05T15:05:35;101553.84;;;9.96;100.00
33265;BME280;31404;53.974;-1.086;2023-04-05T15:10:35;101543.77;;;9.85;100.00
33265;BME280;31404;53.974;-1.086;2023-04-05T15:15:39;101541.34;;;8.82;100.00
33265;BME280;31404;53.974;-1.086;2023-04-05T15:20:38;101535.62;;;9.36;100.00
33265;BME280;31404;53.974;-1.086;2023-04-05T15:25:38;101529.66;;;9.39;100.00
33265;BME280;31404;53.974;-1.086;2023-04-05T15:30:39;101518.03;;;10.02;100.00
33265;BME280;31404;53.974;-1.086;2023-04-05T15:35:38;101512.31;;;9.89;100.00
33265;BME280;31404;53.974;-1.086;2023-04-05T15:40:39;101511.71;;;9.53;100.00
33265;BME280;31404;53.974;-1.086;2023-04-05T15:45:38;101516.55;;;8.31;100.00
33265;BME280;31404;53.974;-1.086;2023-04-05T15:50:39;101520.48;;;9.27;100.00
33265;BME280;31404;53.974;-1.086;2023-04-05T15:55:43;101515.64;;;8.45;100.00
33265;BME280;31404;53.974;-1.086;2023-04-05T16:00:38;101508.65;;;9.53;100.00
33265;BME280;31404;53.974;-1.086;2023-04-05T16:05:35;101498.09;;;10.73;100.00
33265;BME280;31404;53.974;-1.086;2023-04-05T16:10:39;101501.92;;;8.90;100.00
33265;BME280;31404;53.974;-1.086;2023-04-05T16:15:40;101495.31;;;9.88;100.00
33265;BME280;31404;53.974;-1.086;2023-04-05T16:20:35;101488.31;;;10.42;100.00
33265;BME280;31404;53.974;-1.086;2023-04-05T16:25:34;101489.52;;;9.93;100.00
33265;BME280;31404;53.974;-1.086;2023-04-05T16:30:40;101487.20;;;10.20;100.00
33265;BME280;31404;53.974;-1.086;2023-04-05T16:35:35;101486.08;;;10.05;100.00
33265;BME280;31404;53.974;-1.086;2023-04-05T16:40:35;101488.83;;;9.44;100.00
33265;BME280;31404;53.974;-1.086;2023-04-05T16:45:40;101479.86;;;9.59;100.00
33265;BME280;31404;53.974;-1.086;2023-04-05T16:50:39;101474.09;;;10.10;100.00
33265;BME280;31404;53.974;-1.086;2023-04-05T16:55:40;101472.14;;;11.10;96.60
33265;BME280;31404;53.974;-1.086;2023-04-05T17:00:39;101474.41;;;8.91;100.00
33265;BME280;31404;53.974;-1.086;2023-04-05T17:05:39;101460.80;;;10.98;99.56
33265;BME280;31404;53.974;-1.086;2023-04-05T17:10:35;101466.65;;;9.87;100.00
33265;BME280;31404;53.974;-1.086;2023-04-05T17:15:35;101472.38;;;8.56;100.00
33265;BME280;31404;53.974;-1.086;2023-04-05T17:20:41;101460.32;;;8.15;100.00
33265;BME280;31404;53.974;-1.086;2023-04-05T17:25:35;101458.64;;;9.20;100.00
33265;BME280;31404;53.974;-1.086;2023-04-05T17:30:39;101449.81;;;9.54;100.00
33265;BME280;31404;53.974;-1.086;2023-04-05T17:35:35;101451.42;;;7.46;100.00
33265;BME280;31404;53.974;-1.086;2023-04-05T17:40:35;101450.51;;;8.30;100.00
33265;BME280;31404;53.974;-1.086;2023-04-05T17:45:36;101449.53;;;8.60;100.00
33265;BME280;31404;53.974;-1.086;2023-04-05T17:50:39;101439.20;;;9.83;100.00
33265;BME280;31404;53.974;-1.086;2023-04-05T17:55:39;101436.53;;;9.66;100.00
33265;BME280;31404;53.974;-1.086;2023-04-05T18:00:35;101436.88;;;8.57;100.00
33265;BME280;31404;53.974;-1.086;2023-04-05T18:05:40;101434.47;;;8.86;100.00
33265;BME280;31404;53.974;-1.086;2023-04-05T18:10:40;101433.44;;;8.90;100.00
33265;BME280;31404;53.974;-1.086;2023-04-05T18:15:40;101426.17;;;9.53;100.00
33265;BME280;31404;53.974;-1.086;2023-04-05T18:20:39;101429.96;;;9.27;100.00
33265;BME280;31404;53.974;-1.086;2023-04-05T18:25:35;101427.94;;;10.33;100.00
33265;BME280;31404;53.974;-1.086;2023-04-05T18:30:41;101428.62;;;8.05;100.00
33265;BME280;31404;53.974;-1.086;2023-04-05T18:35:40;101426.42;;;8.96;100.00
33265;BME280;31404;53.974;-1.086;2023-04-05T18:40:35;101419.31;;;9.36;100.00
33265;BME280;31404;53.974;-1.086;2023-04-05T18:45:41;101416.15;;;9.88;100.00
33265;BME280;31404;53.974;-1.086;2023-04-05T18:50:35;101418.43;;;9.71;100.00
33265;BME280;31404;53.974;-1.086;2023-04-05T18:55:39;101415.37;;;9.90;100.00
33265;BME280;31404;53.974;-1.086;2023-04-05T19:00:40;101413.88;;;9.95;100.00
33265;BME280;31404;53.974;-1.086;2023-04-05T19:05:40;101412.78;;;8.78;100.00
33265;BME280;31404;53.974;-1.086;2023-04-05T19:10:36;101414.39;;;8.79;100.00
33265;BME280;31404;53.974;-1.086;2023-04-05T19:15:39;101415.02;;;8.60;100.00
33265;BME280;31404;53.974;-1.086;2023-04-05T19:20:39;101407.68;;;8.93;100.00
33265;BME280;31404;53.974;-1.086;2023-04-05T19:25:35;101406.86;;;9.84;100.00
33265;BME280;31404;53.974;-1.086;2023-04-05T19:35:40;101402.07;;;9.85;100.00
33265;BME280;31404;53.974;-1.086;2023-04-05T19:40:40;101399.77;;;9.30;100.00
33265;BME280;31404;53.974;-1.086;2023-04-05T19:45:40;101400.55;;;10.19;100.00
33265;BME280;31404;53.974;-1.086;2023-04-05T19:55:40;101393.24;;;10.51;100.00
33265;BME280;31404;53.974;-1.086;2023-04-05T20:10:41;101379.14;;;9.61;100.00
33265;BME280;31404;53.974;-1.086;2023-04-05T20:15:41;101371.59;;;10.16;100.00
33265;BME280;31404;53.974;-1.086;2023-04-05T20:20:38;101364.10;;;9.61;100.00
33265;BME280;31404;53.974;-1.086;2023-04-05T20:25:40;101363.79;;;10.10;100.00
33265;BME280;31404;53.974;-1.086;2023-04-05T20:30:40;101359.95;;;9.85;100.00
33265;BME280;31404;53.974;-1.086;2023-04-05T20:35:39;101357.27;;;9.75;100.00
33265;BME280;31404;53.974;-1.086;2023-04-05T20:40:39;101347.45;;;10.04;100.00
33265;BME280;31404;53.974;-1.086;2023-04-05T20:45:39;101341.25;;;9.79;100.00
33265;BME280;31404;53.974;-1.086;2023-04-05T20:50:40;101337.27;;;9.99;100.00
33265;BME280;31404;53.974;-1.086;2023-04-05T20:55:34;101331.65;;;10.82;97.50
33265;BME280;31404;53.974;-1.086;2023-04-05T21:00:39;101335.87;;;9.66;100.00
33265;BME280;31404;53.974;-1.086;2023-04-05T21:10:39;101321.82;;;11.69;93.01
33265;BME280;31404;53.974;-1.086;2023-04-05T21:15:34;101317.17;;;10.35;98.01
33265;BME280;31404;53.974;-1.086;2023-04-05T21:20:40;101310.30;;;9.38;100.00
33265;BME280;31404;53.974;-1.086;2023-04-05T21:25:40;101310.16;;;8.62;100.00
33265;BME280;31404;53.974;-1.086;2023-04-05T21:30:38;101301.51;;;9.73;100.00
33265;BME280;31404;53.974;-1.086;2023-04-05T21:35:40;101298.35;;;8.90;100.00
33265;BME280;31404;53.974;-1.086;2023-04-05T21:40:39;101292.17;;;9.42;100.00
33265;BME280;31404;53.974;-1.086;2023-04-05T21:45:40;101288.57;;;10.21;100.00
33265;BME280;31404;53.974;-1.086;2023-04-05T21:50:39;101284.63;;;10.25;100.00
33265;BME280;31404;53.974;-1.086;2023-04-05T21:55:39;101283.20;;;11.55;94.81
33265;BME280;31404;53.974;-1.086;2023-04-05T22:00:34;101276.62;;;11.13;96.34
33265;BME280;31404;53.974;-1.086;2023-04-05T22:05:37;101270.97;;;10.68;98.58
33265;BME280;31404;53.974;-1.086;2023-04-05T22:10:40;101271.41;;;8.94;100.00
33265;BME280;31404;53.974;-1.086;2023-04-05T22:15:40;101268.96;;;9.38;100.00
33265;BME280;31404;53.974;-1.086;2023-04-05T22:20:35;101261.04;;;9.11;100.00
33265;BME280;31404;53.974;-1.086;2023-04-05T22:25:40;101251.68;;;9.81;100.00
33265;BME280;31404;53.974;-1.086;2023-04-05T22:30:39;101244.36;;;9.71;100.00
33265;BME280;31404;53.974;-1.086;2023-04-05T22:35:40;101236.83;;;10.70;99.19
33265;BME280;31404;53.974;-1.086;2023-04-05T22:40:34;101238.85;;;9.24;100.00
33265;BME280;31404;53.974;-1.086;2023-04-05T22:45:34;101229.50;;;10.27;100.00
33265;BME280;31404;53.974;-1.086;2023-04-05T22:50:39;101226.96;;;9.85;100.00
33265;BME280;31404;53.974;-1.086;2023-04-05T22:55:39;101224.04;;;8.95;100.00
33265;BME280;31404;53.974;-1.086;2023-04-05T23:00:36;101219.26;;;9.45;100.00
33265;BME280;31404;53.974;-1.086;2023-04-05T23:05:35;101211.85;;;10.51;99.47
33265;BME280;31404;53.974;-1.086;2023-04-05T23:10:33;101205.68;;;9.79;100.00
33265;BME280;31404;53.974;-1.086;2023-04-05T23:15:40;101200.03;;;10.33;100.00
33265;BME280;31404;53.974;-1.086;2023-04-05T23:20:38;101199.40;;;8.35;100.00
33265;BME280;31404;53.974;-1.086;2023-04-05T23:25:40;101197.50;;;8.27;100.00
33265;BME280;31404;53.974;-1.086;2023-04-05T23:30:35;101189.99;;;9.19;100.00
33265;BME280;31404;53.974;-1.086;2023-04-05T23:35:39;101181.91;;;9.99;100.00
33265;BME280;31404;53.974;-1.086;2023-04-05T23:40:40;101180.16;;;9.11;100.00
33265;BME280;31404;53.974;-1.086;2023-04-05T23:45:40;101171.24;;;10.14;100.00
33265;BME280;31404;53.974;-1.086;2023-04-05T23:50:39;101169.60;;;8.42;100.00
33265;BME280;31404;53.974;-1.086;2023-04-05T23:55:40;101166.35;;;8.55;100.00
